Gandsi, Mississippi
Current Conditions -  °F | °C
As of 9:15 AM on Thursday 18 Dec 2014 (Local Time) from KPIB Reporting Station
Broken Clouds Broken Clouds  
Wind Chill: 46°   Ceiling: 11000
Heat Index: 48°   Visibility: 10mi
Dew Point: 37°   Wind: 6mph
Humidity: 66%   Direction: 90°E
Pressure: 30.23"   Gusts: NA
Location:  31.5166°N, 89.4877°W
Report Text: KPIB 181515Z AUTO 09005KT 10SM SCT039 BKN110 09/03 A3023 RMK AO1
Loading
Personal Weather Stations






























Interactive Weather Map New forecast layout! Learn more

10-Day Weather Forecast

Advertisements
Track Severe Weather on mobile